Notice: Undefined index: language in /home/spanairv/public_html/vam/index.php on line 25
Spanair Virtual

 INFORMACIÓN METAR y TAF
METAR FOR LEIB
ADDS - METARS form results

(0243 UTC 24 October 2018)
Data provider http://aviationweather.gov/metar/data/
 
METAR text: LEIB 240230Z 00000KT 9999 FEW030 14/13 Q1024 NOSIG
Conditions at: LEIB (IBIZA/ES CODOLA , ES) observed 0230 UTC 24 October 2018
Temperature: 14.0°C (57°F)
Dewpoint: 13.0°C (55°F) [RH = 94%]
Pressure (altimeter): 30.24 inches Hg (1024.0 mb)
Winds: calm
Visibility: 6 or more miles (10+ km)
Ceiling: at least 12,000 feet AGL
Clouds: few clouds at 3000 feet AGL
Weather: no significant weather observed at this time

METAR text: LEIB 240200Z 00000KT 9999 FEW030 15/14 Q1024 NOSIG
Conditions at: LEIB (IBIZA/ES CODOLA , ES) observed 0200 UTC 24 October 2018
Temperature: 15.0°C (59°F)
Dewpoint: 14.0°C (57°F) [RH = 94%]
Pressure (altimeter): 30.24 inches Hg (1024.0 mb)
Winds: calm
Visibility: 6 or more miles (10+ km)
Ceiling: at least 12,000 feet AGL
Clouds: few clouds at 3000 feet AGL
Weather: no significant weather observed at this time

Forecast for: LEIB (IBIZA/ES CODOLA , ES)
Text: TAF LEIB 240200Z 2403/2503 31005KT 9999 FEW030 TX23/2412Z TN15/2405Z
Forecast period: 0300 to 0800 UTC 24 October 2018
Forecast type: FROM: standard forecast or significant change
Winds: from the NW (310 degrees) at 6 MPH (5 knots; 2.6 m/s)
Visibility: 6 or more miles 10+ km)
Ceiling: at least 12,000 feet AGL
Clouds: few clouds at 3000 feet AGL
Weather: no significant weather forecast for this period
Text: BECMG 2408/2412 24012KT
Forecast period: 0800 UTC 24 October 2018 to 0300 UTC 25 October 2018
Forecast type: BECOMING: Conditions expected to become as follows by 1200 UTC 24 October 2018
Winds: from the WSW (240 degrees) at 14 MPH (12 knots; 6.2 m/s)
Visibility: 6 or more miles 10+ km)
Ceiling: at least 12,000 feet AGL
Clouds: few clouds at 3000 feet AGL
Weather: no significant weather forecast for this period

 MAPA DE AEROPUERTO

 INFORMACIÓN DE PISTA
Pista 06 Longitud 9186 ft Ancho 148 ft
Elevación 13 ft Umbral desplazado 0 ft Rumbo de pista 62
Pista 24 Longitud 9186 ft Ancho 148 ft
Elevación 16 ft Umbral desplazado 0 ft Rumbo de pista 242

 FRECUANCIAS DEL AEROPUERTO
Tipo APP Nombre PALMA APP Frecuencia 118.125 MHZ
Tipo APP Nombre APP Frecuencia 119.8 MHZ
Tipo ATIS Nombre ATIS Frecuencia 117.8 MHZ
Tipo GND Nombre GND Frecuencia 121.8 MHZ
Tipo TWR Nombre TWR Frecuencia 118.5 MHZ

 RADIO AYUDAS DEL AEROPUERTO
Tipo VOR-DME Nombre Ibiza Frecuencia 117800 KHZ
Tipo NDB Nombre Ibiza Frecuencia 394 KHZ





VAM [v2.6.2]

Normativa | Spanair Virtual © 2017 | Customized by JZ © 2017 for Spanair Virtual